Providence Village's Hourly Summary for Friday, March 17, 2017
Hour Temp
(f)
RH
(%)
Solar Rad.
(MJ/m2)
Rainfall
(in)
Wind
(mph)
3/17/2017 12:00 AM 66 76 0 0 7.29
3/17/2017 1:00 AM 65 79 0 0 6.15
3/17/2017 2:00 AM 65 80 0 0 7.48
3/17/2017 3:00 AM 66 79 0 0 10.93
3/17/2017 4:00 AM 65 80 0 0 11.04
3/17/2017 5:00 AM 66 79 0 0 11.24
3/17/2017 6:00 AM 66 78 0 0 9.02
3/17/2017 7:00 AM 66 78 0 0 8.39
3/17/2017 8:00 AM 66 76 0.01 0 9.4
3/17/2017 9:00 AM 67 74 0.18 0 9.7
3/17/2017 10:00 AM 67 74 0.43 0 10.1
3/17/2017 11:00 AM 69 69 1.21 0 10.82
3/17/2017 12:00 PM 71 67 1.1 0 11.81
3/17/2017 1:00 PM 72 66 1.22 0 10.71
3/17/2017 2:00 PM 73 59 2 0 9.59
3/17/2017 3:00 PM 74 59 1.86 0 10.19
3/17/2017 4:00 PM 75 58 2.21 0 9.55
3/17/2017 5:00 PM 75 58 1.62 0 9.17
3/17/2017 6:00 PM 75 58 1.2 0 7.91
3/17/2017 7:00 PM 74 58 0.27 0 5.08
3/17/2017 8:00 PM 73 62 0.03 0 3.29
3/17/2017 9:00 PM 72 63 0 0 2.07
3/17/2017 10:00 PM 72 63 0 0 2.25
3/17/2017 11:00 PM 72 65 0 0 3.53
Data Summary 69 69 13.34 0.00 8.20